Time;durP1;ratioP1;P1;durP2;ratioP2;P2;SDS_P1;SDS_P2;PMS_P1;PMS_P2;Temp;Humidity;BMP_temperature;BMP_pressure;BME280_temperature;BME280_humidity;BME280_pressure;Samples;Min_cycle;Max_cycle;Signal;HPM_P1;HPM_P2
2022/03/29 00:01:07;;;;;;;27.33;14.77;;;10.50;71.10;;;;;;5114980;28;20042;-69
2022/03/29 00:04:11;;;;;;;23.42;14.63;;;10.50;71.00;;;;;;5114597;28;20051;-69
2022/03/29 00:07:15;;;;;;;29.90;14.65;;;10.40;71.40;;;;;;5114740;28;20039;-69
2022/03/29 00:10:20;;;;;;;24.95;14.65;;;10.40;71.50;;;;;;5115157;28;20042;-69
2022/03/29 00:13:24;;;;;;;28.20;16.25;;;10.20;72.10;;;;;;5114571;28;20378;-69
2022/03/29 00:16:29;;;;;;;28.55;15.63;;;10.10;72.40;;;;;;5114184;28;20834;-69
2022/03/29 00:19:33;;;;;;;26.90;14.63;;;10.00;73.00;;;;;;5114747;28;20054;-68
2022/03/29 00:22:37;;;;;;;32.65;15.10;;;10.00;73.60;;;;;;5114340;28;20674;-69
2022/03/29 00:25:41;;;;;;;28.08;16.08;;;10.00;74.30;;;;;;5113850;28;20063;-69
2022/03/29 00:28:45;;;;;;;28.67;14.73;;;10.00;75.00;;;;;;5114012;28;20402;-69
2022/03/29 00:31:49;;;;;;;34.95;15.60;;;10.00;75.80;;;;;;5114445;28;20054;-69
2022/03/29 00:34:53;;;;;;;27.13;15.38;;;10.00;76.00;;;;;;5114047;28;20051;-69
2022/03/29 00:37:58;;;;;;;26.50;14.48;;;10.00;76.40;;;;;;5113791;28;20055;-69
2022/03/29 00:41:02;;;;;;;28.05;15.80;;;10.00;76.20;;;;;;5114243;28;20052;-69
2022/03/29 00:44:06;;;;;;;29.75;14.38;;;9.90;76.10;;;;;;5113982;28;20054;-69
2022/03/29 00:47:10;;;;;;;25.75;15.15;;;9.80;76.50;;;;;;5113747;28;20047;-69
2022/03/29 00:50:15;;;;;;;27.63;14.60;;;9.80;76.90;;;;;;5114228;28;20382;-69
2022/03/29 00:53:22;;;;;;;27.95;14.52;;;9.70;76.90;;;;;;5113408;28;20047;-69
2022/03/29 00:56:26;;;;;;;27.95;13.43;;;9.60;76.90;;;;;;5113369;28;20051;-69
2022/03/29 00:59:31;;;;;;;25.33;13.60;;;9.50;77.20;;;;;;5113746;28;20489;-69
2022/03/29 01:02:35;;;;;;;24.77;14.63;;;9.40;77.80;;;;;;5113925;28;20086;-69
2022/03/29 01:05:40;;;;;;;20.33;11.88;;;9.30;78.30;;;;;;5113911;28;20497;-69
2022/03/29 01:08:44;;;;;;;26.67;11.20;;;9.30;78.00;;;;;;5113870;28;20050;-69
2022/03/29 01:11:50;;;;;;;26.00;13.68;;;9.30;75.90;;;;;;5113761;28;20042;-69
2022/03/29 01:14:54;;;;;;;25.00;13.27;;;9.40;78.10;;;;;;5113502;28;20050;-69
2022/03/29 01:17:59;;;;;;;26.88;13.18;;;9.20;79.20;;;;;;5113136;28;20047;-69
2022/03/29 01:21:06;;;;;;;24.17;14.00;;;9.20;79.80;;;;;;5113648;28;20399;-69
2022/03/29 01:24:11;;;;;;;22.40;13.95;;;9.20;81.30;;;;;;5113262;28;20542;-71
2022/03/29 01:27:15;;;;;;;32.00;13.35;;;9.10;83.50;;;;;;5112843;28;20054;-69
2022/03/29 01:30:21;;;;;;;25.83;13.63;;;9.10;85.60;;;;;;5113339;28;20054;-69
2022/03/29 01:33:27;;;;;;;22.33;13.43;;;9.10;87.50;;;;;;5113470;28;20066;-69
2022/03/29 01:36:32;;;;;;;23.85;12.90;;;9.10;85.90;;;;;;5112665;28;20046;-69
2022/03/29 01:39:37;;;;;;;29.65;13.57;;;9.00;86.10;;;;;;5113364;28;20050;-70
2022/03/29 01:42:58;;;;;;;28.48;13.43;;;8.90;86.00;;;;;;5113316;28;20043;-69
2022/03/29 01:46:02;;;;;;;28.88;16.25;;;8.80;85.90;;;;;;5112552;28;20046;-69
2022/03/29 01:49:06;;;;;;;25.60;15.00;;;8.80;86.50;;;;;;5113110;28;20061;-69
2022/03/29 01:52:11;;;;;;;24.63;14.48;;;8.70;87.00;;;;;;5112800;28;20378;-70
2022/03/29 01:55:21;;;;;;;30.70;14.80;;;8.70;87.80;;;;;;5112464;28;20047;-70
2022/03/29 01:58:26;;;;;;;33.13;14.75;;;8.60;88.90;;;;;;5112287;28;20386;-68
2022/03/29 02:01:30;;;;;;;32.95;14.90;;;8.60;90.10;;;;;;5112822;28;20501;-69
2022/03/29 02:04:34;;;;;;;28.60;13.07;;;8.60;90.90;;;;;;5112040;28;20043;-69
2022/03/29 02:07:38;;;;;;;26.30;13.95;;;8.50;90.90;;;;;;5112054;28;20061;-69
2022/03/29 02:10:42;;;;;;;24.92;13.90;;;8.50;91.70;;;;;;5112614;28;20389;-69
2022/03/29 02:13:46;;;;;;;40.15;16.17;;;8.40;91.90;;;;;;5112256;28;20039;-69
2022/03/29 02:16:51;;;;;;;31.20;15.25;;;8.30;92.00;;;;;;5111132;28;20053;-69
2022/03/29 02:19:55;;;;;;;23.65;14.15;;;8.30;93.90;;;;;;5112646;28;20050;-69
2022/03/29 02:23:06;;;;;;;35.60;15.13;;;8.30;95.20;;;;;;5112293;28;20058;-69
2022/03/29 02:26:10;;;;;;;30.02;15.85;;;8.30;95.40;;;;;;5111000;28;20043;-69
2022/03/29 02:29:14;;;;;;;26.95;14.57;;;8.20;95.60;;;;;;5111667;28;20047;-69
2022/03/29 02:32:19;;;;;;;31.25;16.13;;;8.10;96.10;;;;;;5112140;28;20394;-69
2022/03/29 02:35:22;;;;;;;29.67;14.63;;;8.10;96.20;;;;;;5111867;28;20051;-69
2022/03/29 02:38:26;;;;;;;25.40;14.63;;;8.00;96.40;;;;;;5111952;28;20034;-69
2022/03/29 02:41:30;;;;;;;24.52;14.80;;;8.00;96.40;;;;;;5112058;28;20046;-69
2022/03/29 02:44:34;;;;;;;26.38;14.73;;;7.80;96.50;;;;;;5112462;28;20058;-69
2022/03/29 02:47:38;;;;;;;29.80;14.27;;;7.70;96.40;;;;;;5111242;28;20042;-68
2022/03/29 02:50:42;;;;;;;32.38;15.02;;;7.60;97.00;;;;;;5111917;28;20034;-68
2022/03/29 02:53:46;;;;;;;28.55;15.23;;;7.60;98.00;;;;;;5112127;28;20050;-68
2022/03/29 02:56:50;;;;;;;31.13;14.63;;;7.80;98.60;;;;;;5110600;28;20043;-68
2022/03/29 02:59:54;;;;;;;30.00;14.43;;;7.80;99.20;;;;;;5109543;28;20046;-69
2022/03/29 03:02:59;;;;;;;26.75;14.10;;;7.80;99.60;;;;;;5111346;28;20051;-68
2022/03/29 03:06:04;;;;;;;32.58;14.48;;;7.80;99.90;;;;;;5110661;28;20705;-68
2022/03/29 03:09:08;;;;;;;30.50;14.40;;;7.80;99.90;;;;;;5111357;28;20055;-68
2022/03/29 03:12:12;;;;;;;26.92;14.50;;;7.80;99.90;;;;;;5111332;28;20039;-69
2022/03/29 03:15:19;;;;;;;25.98;13.85;;;7.70;99.90;;;;;;5111650;28;20051;-68
2022/03/29 03:18:24;;;;;;;30.75;14.90;;;7.70;99.90;;;;;;5110768;28;20050;-68
2022/03/29 03:21:28;;;;;;;24.70;13.98;;;7.70;99.90;;;;;;5111552;28;20046;-68
2022/03/29 03:24:32;;;;;;;20.98;13.73;;;7.70;99.90;;;;;;5111471;28;20050;-68
2022/03/29 03:27:38;;;;;;;26.75;14.60;;;7.50;99.90;;;;;;5109918;28;20512;-69
2022/03/29 03:30:42;;;;;;;37.50;14.27;;;7.40;99.90;;;;;;5111674;28;20390;-68
2022/03/29 03:33:45;;;;;;;35.63;16.38;;;7.30;99.90;;;;;;5111663;28;20055;-69
2022/03/29 03:36:51;;;;;;;26.40;13.27;;;7.10;99.90;;;;;;5110565;28;20046;-69
2022/03/29 03:39:55;;;;;;;32.90;16.08;;;7.00;99.90;;;;;;5111534;28;20050;-69
2022/03/29 03:43:02;;;;;;;33.20;14.32;;;7.00;99.90;;;;;;5111707;28;20051;-69
2022/03/29 03:46:06;;;;;;;28.27;15.20;;;6.90;99.90;;;;;;5109932;28;20082;-69
2022/03/29 03:49:10;;;;;;;27.02;15.38;;;6.70;99.90;;;;;;5111447;28;20047;-69
2022/03/29 03:52:14;;;;;;;31.27;14.82;;;6.70;99.90;;;;;;5111679;28;20047;-68
2022/03/29 03:55:18;;;;;;;30.10;14.68;;;6.60;99.90;;;;;;5111538;28;20595;-68
2022/03/29 03:58:22;;;;;;;32.10;15.75;;;6.60;99.90;;;;;;5110789;28;20062;-69
2022/03/29 04:01:27;;;;;;;23.98;13.60;;;6.50;99.90;;;;;;5111837;28;20054;-68
2022/03/29 04:04:31;;;;;;;23.90;13.30;;;6.50;99.90;;;;;;5111149;28;20378;-68
2022/03/29 04:07:35;;;;;;;29.92;14.32;;;6.40;99.90;;;;;;5110480;28;20477;-68
2022/03/29 04:10:40;;;;;;;27.20;14.50;;;6.40;99.90;;;;;;5111322;28;20055;-68
2022/03/29 04:13:44;;;;;;;23.75;13.85;;;6.40;99.90;;;;;;5111031;28;20043;-68
2022/03/29 04:16:48;;;;;;;31.10;14.02;;;6.40;99.90;;;;;;5110457;28;20051;-69
2022/03/29 04:19:52;;;;;;;25.88;14.13;;;6.40;99.90;;;;;;5111072;28;20051;-69
2022/03/29 04:22:56;;;;;;;25.90;13.95;;;6.50;99.90;;;;;;5111106;28;20050;-69
2022/03/29 04:26:01;;;;;;;34.85;14.90;;;6.50;99.90;;;;;;5110633;28;20047;-69
2022/03/29 04:29:05;;;;;;;32.47;15.35;;;6.60;99.90;;;;;;5112499;28;20501;-69
2022/03/29 04:32:09;;;;;;;29.58;14.60;;;6.70;99.90;;;;;;5114723;28;20050;-69
2022/03/29 04:35:14;;;;;;;32.92;16.98;;;6.70;99.90;;;;;;5114538;28;20042;-69
2022/03/29 04:38:19;;;;;;;32.08;15.45;;;6.80;99.90;;;;;;5114018;28;20070;-68
2022/03/29 04:41:24;;;;;;;28.58;15.73;;;6.90;99.90;;;;;;5114752;28;20058;-69
2022/03/29 04:44:28;;;;;;;35.35;16.65;;;6.90;99.90;;;;;;5114740;28;20059;-68
2022/03/29 04:47:32;;;;;;;30.58;17.23;;;6.90;99.90;;;;;;5113829;28;20042;-68
2022/03/29 04:50:36;;;;;;;31.10;16.13;;;7.00;99.90;;;;;;5114546;28;20043;-68
2022/03/29 04:53:40;;;;;;;35.60;15.07;;;6.90;99.90;;;;;;5114366;28;20051;-68
2022/03/29 04:56:44;;;;;;;33.38;16.05;;;6.90;99.90;;;;;;5113374;28;20054;-68
2022/03/29 04:59:48;;;;;;;32.13;17.15;;;6.80;99.90;;;;;;5114464;28;20047;-68
2022/03/29 05:02:52;;;;;;;32.83;17.42;;;6.80;99.90;;;;;;5114527;28;20058;-68
2022/03/29 05:05:56;;;;;;;32.35;15.60;;;6.70;99.90;;;;;;5114352;28;20386;-69
2022/03/29 05:09:00;;;;;;;28.38;15.40;;;6.60;99.90;;;;;;5113915;28;20043;-69
2022/03/29 05:12:04;;;;;;;29.52;16.23;;;6.60;99.90;;;;;;5114078;28;20489;-69
2022/03/29 05:15:08;;;;;;;29.60;15.20;;;6.60;99.90;;;;;;5114039;28;20050;-68
2022/03/29 05:18:13;;;;;;;28.63;16.42;;;6.70;99.90;;;;;;5112882;28;20382;-68
2022/03/29 05:21:17;;;;;;;30.83;16.92;;;6.70;99.90;;;;;;5113276;28;20042;-69
2022/03/29 05:24:21;;;;;;;31.10;15.75;;;6.70;99.90;;;;;;5113314;28;20398;-69
2022/03/29 05:27:25;;;;;;;27.23;15.68;;;6.70;99.90;;;;;;5112187;28;20505;-69
2022/03/29 05:30:29;;;;;;;33.78;17.92;;;6.70;99.90;;;;;;5112702;28;20058;-68
2022/03/29 05:33:34;;;;;;;32.53;16.80;;;6.80;99.90;;;;;;5112564;28;20047;-68
2022/03/29 05:36:42;;;;;;;41.55;17.02;;;6.90;99.90;;;;;;5112280;28;20055;-68
2022/03/29 05:39:47;;;;;;;34.50;17.42;;;7.00;99.90;;;;;;5112144;27;20055;-68
2022/03/29 05:42:52;;;;;;;46.90;16.25;;;7.10;99.90;;;;;;5112495;28;20035;-68
2022/03/29 05:49:20;;;;;;;39.60;16.52;;;7.50;99.90;;;;;;5112765;28;20047;-68
2022/03/29 05:52:25;;;;;;;35.00;15.75;;;7.80;99.90;;;;;;5112907;28;20050;-68
2022/03/29 05:55:29;;;;;;;36.35;14.00;;;8.20;99.90;;;;;;5112566;28;20129;-68
2022/03/29 05:58:34;;;;;;;27.52;14.77;;;8.50;99.90;;;;;;5112348;28;20047;-68
2022/03/29 06:01:39;;;;;;;31.00;15.35;;;8.80;99.90;;;;;;5107856;28;20055;-68
2022/03/29 06:04:43;;;;;;;28.98;14.77;;;8.80;99.90;;;;;;5108009;28;20047;-68
2022/03/29 06:07:47;;;;;;;26.95;15.65;;;9.30;99.90;;;;;;5107945;28;20042;-68
2022/03/29 06:10:53;;;;;;;32.63;15.23;;;9.70;99.90;;;;;;5103367;28;20050;-68
2022/03/29 06:13:57;;;;;;;27.33;14.48;;;9.90;99.90;;;;;;5103698;28;20062;-68
2022/03/29 06:17:01;;;;;;;24.67;14.40;;;10.20;99.90;;;;;;5104927;28;20047;-68
2022/03/29 06:20:09;;;;;;;27.95;15.10;;;10.20;99.90;;;;;;5106335;28;20093;-68
2022/03/29 06:23:13;;;;;;;30.58;14.77;;;11.10;99.90;;;;;;5107606;28;20109;-68
2022/03/29 06:26:18;;;;;;;31.85;14.93;;;11.50;99.90;;;;;;5108447;28;20051;-69
2022/03/29 06:29:22;;;;;;;28.50;14.52;;;10.70;99.90;;;;;;5104211;28;20047;-68
2022/03/29 06:32:26;;;;;;;32.55;16.42;;;10.90;99.90;;;;;;5104549;28;20046;-69
2022/03/29 06:35:31;;;;;;;32.80;15.52;;;10.90;99.90;;;;;;5108417;28;20051;-69
2022/03/29 06:38:35;;;;;;;31.70;16.63;;;9.90;99.90;;;;;;5104778;28;20543;-69
2022/03/29 06:41:40;;;;;;;24.17;14.65;;;9.70;99.90;;;;;;5105100;28;20058;-69
2022/03/29 06:44:45;;;;;;;31.70;15.52;;;9.30;99.90;;;;;;5100028;28;20055;-69
2022/03/29 06:47:49;;;;;;;28.20;16.15;;;9.60;99.90;;;;;;5109344;28;20038;-68
2022/03/29 06:50:53;;;;;;;31.52;16.90;;;9.50;99.90;;;;;;5105560;28;20390;-68
2022/03/29 06:53:57;;;;;;;26.50;16.25;;;9.40;99.90;;;;;;5105972;28;20064;-69
2022/03/29 06:57:02;;;;;;;35.72;16.05;;;9.10;99.90;;;;;;5108418;28;20382;-68
2022/03/29 07:00:12;;;;;;;33.00;17.30;;;9.80;99.90;;;;;;5109428;28;20046;-68
2022/03/29 07:03:15;;;;;;;24.63;14.57;;;10.70;99.90;;;;;;5102369;28;20055;-69
2022/03/29 07:06:19;;;;;;;28.92;15.32;;;12.30;99.90;;;;;;5104366;28;20489;-69
2022/03/29 07:12:51;;;;;;;22.58;13.18;;;15.70;96.80;;;;;;5103697;28;20039;-69
2022/03/29 07:15:54;;;;;;;22.73;12.13;;;17.20;92.80;;;;;;5107294;28;20047;-69
2022/03/29 07:18:58;;;;;;;26.00;13.30;;;19.00;89.50;;;;;;5105868;28;20058;-69
2022/03/29 07:22:03;;;;;;;27.70;13.25;;;20.10;82.70;;;;;;5105961;28;20738;-71
2022/03/29 07:25:07;;;;;;;23.45;11.35;;;18.80;79.60;;;;;;5108151;28;20031;-71
2022/03/29 07:28:15;;;;;;;22.65;12.88;;;19.70;81.30;;;;;;5104275;28;20050;-70
2022/03/29 07:31:19;;;;;;;23.30;12.82;;;21.10;77.00;;;;;;5104118;28;20046;-71
2022/03/29 07:34:23;;;;;;;24.55;12.65;;;21.60;72.20;;;;;;5102703;28;20780;-71
2022/03/29 07:37:27;;;;;;;18.17;10.82;;;22.50;70.50;;;;;;5104578;28;20043;-71
2022/03/29 07:40:31;;;;;;;22.40;11.55;;;23.70;67.30;;;;;;5104934;28;20046;-72
2022/03/29 07:43:35;;;;;;;22.27;11.25;;;23.90;65.50;;;;;;5106676;28;20059;-72
2022/03/29 07:46:39;;;;;;;18.33;10.65;;;23.60;64.20;;;;;;5106383;28;20046;-72
2022/03/29 07:49:44;;;;;;;18.67;11.43;;;23.40;65.10;;;;;;5101096;28;20038;-72
2022/03/29 07:52:50;;;;;;;20.33;11.48;;;23.20;64.30;;;;;;5107497;28;20486;-71
2022/03/29 07:55:54;;;;;;;27.30;11.70;;;23.30;63.80;;;;;;5107892;28;20058;-72
2022/03/29 07:58:59;;;;;;;25.23;11.05;;;23.50;64.30;;;;;;5106065;28;20066;-72
2022/03/29 08:02:08;;;;;;;13.50;10.60;;;23.80;64.30;;;;;;5103968;28;20488;-71
2022/03/29 08:05:12;;;;;;;16.38;10.43;;;23.80;62.60;;;;;;5110375;28;20043;-72
2022/03/29 08:08:16;;;;;;;30.77;10.73;;;24.30;62.40;;;;;;5111812;28;20062;-71
2022/03/29 08:11:22;;;;;;;22.92;10.35;;;24.70;61.70;;;;;;5110941;28;20042;-72
2022/03/29 08:14:26;;;;;;;17.48;10.98;;;25.70;60.60;;;;;;5103866;28;20046;-72
2022/03/29 08:17:31;;;;;;;20.88;10.38;;;24.20;59.10;;;;;;5107482;28;20531;-72
2022/03/29 08:20:36;;;;;;;18.42;9.95;;;24.30;61.20;;;;;;5112484;28;20070;-72
2022/03/29 08:23:40;;;;;;;20.08;10.00;;;25.10;60.80;;;;;;5108798;28;20043;-72
2022/03/29 08:26:46;;;;;;;19.88;9.25;;;27.10;59.10;;;;;;5110318;28;20046;-72
2022/03/29 08:29:50;;;;;;;16.23;8.20;;;28.40;57.70;;;;;;5106871;28;20035;-72
2022/03/29 08:32:54;;;;;;;20.52;8.00;;;29.60;55.80;;;;;;5108766;28;20050;-69
2022/03/29 08:35:58;;;;;;;18.77;7.90;;;29.60;55.10;;;;;;5108736;28;20035;-70
2022/03/29 08:39:04;;;;;;;14.85;8.60;;;29.10;54.80;;;;;;5109675;28;20062;-71
2022/03/29 08:42:13;;;;;;;13.13;8.15;;;28.40;54.60;;;;;;5103589;28;20402;-72
2022/03/29 08:45:18;;;;;;;17.38;8.65;;;28.40;54.80;;;;;;5105517;28;20038;-72
2022/03/29 08:48:23;;;;;;;14.98;8.93;;;24.90;57.50;;;;;;5105538;28;20058;-72
2022/03/29 08:51:28;;;;;;;15.82;9.15;;;24.70;58.80;;;;;;5106859;28;20054;-71
2022/03/29 08:54:32;;;;;;;20.42;9.18;;;23.00;62.60;;;;;;5110656;28;20058;-72
2022/03/29 08:57:38;;;;;;;15.90;9.10;;;24.10;60.40;;;;;;5113006;28;20374;-72
2022/03/29 09:00:44;;;;;;;19.13;8.38;;;26.00;58.80;;;;;;5107274;28;20042;-72
2022/03/29 09:04:14;;;;;;;20.83;9.07;;;27.60;57.80;;;;;;5108137;28;20050;-72
2022/03/29 09:07:18;;;;;;;16.35;8.93;;;28.60;55.90;;;;;;5104389;28;20145;-72
2022/03/29 09:10:40;;;;;;;20.40;8.40;;;27.60;55.30;;;;;;5107755;28;20047;-72
2022/03/29 09:13:44;;;;;;;13.48;7.35;;;28.00;55.80;;;;;;5101378;28;20046;-72
2022/03/29 09:16:50;;;;;;;14.50;7.82;;;28.80;55.20;;;;;;5111836;28;20047;-65
2022/03/29 09:19:55;;;;;;;14.85;7.80;;;28.70;54.50;;;;;;5108666;28;20035;-64
2022/03/29 09:22:59;;;;;;;18.55;8.32;;;29.40;54.20;;;;;;5109050;28;20034;-65
2022/03/29 09:26:04;;;;;;;22.63;7.72;;;30.50;54.10;;;;;;5108566;28;20753;-65
2022/03/29 09:29:13;;;;;;;16.27;7.63;;;31.20;52.40;;;;;;5111718;28;20034;-72
2022/03/29 09:32:18;;;;;;;16.38;8.32;;;31.30;52.30;;;;;;5099393;28;20046;-71
2022/03/29 09:35:25;;;;;;;16.67;8.00;;;31.40;51.50;;;;;;5110176;28;20043;-72
2022/03/29 09:38:56;;;;;;;14.77;7.97;;;32.10;50.90;;;;;;5109457;28;20382;-72
2022/03/29 09:42:12;;;;;;;14.35;7.80;;;31.80;50.40;;;;;;5105877;28;20046;-73
2022/03/29 09:45:40;;;;;;;13.30;7.72;;;31.40;50.30;;;;;;5106784;28;20054;-73
2022/03/29 09:48:44;;;;;;;14.68;7.38;;;30.80;51.00;;;;;;5106805;28;20035;-73
2022/03/29 09:52:11;;;;;;;12.23;7.47;;;31.10;50.70;;;;;;5102754;28;20058;-72
2022/03/29 09:55:21;;;;;;;18.13;7.50;;;30.40;51.10;;;;;;5108180;28;20039;-64
2022/03/29 09:58:25;;;;;;;18.60;8.20;;;28.90;51.50;;;;;;5104771;28;20047;-64
2022/03/29 10:01:30;;;;;;;16.25;8.20;;;26.80;53.80;;;;;;5107747;28;20046;-72
2022/03/29 10:04:35;;;;;;;21.60;8.43;;;23.60;55.00;;;;;;5107646;28;20039;-63
2022/03/29 10:11:27;;;;;;;14.35;7.55;;;25.70;53.40;;;;;;5103633;28;20481;-72
2022/03/29 10:14:40;;;;;;;15.05;7.40;;;25.60;53.00;;;;;;5103871;28;20118;-64
2022/03/29 10:17:45;;;;;;;17.30;7.47;;;24.90;52.10;;;;;;5108692;28;20496;-64
2022/03/29 10:20:52;;;;;;;16.73;7.78;;;26.10;51.70;;;;;;5103530;28;20058;-65
2022/03/29 10:23:56;;;;;;;13.25;7.70;;;27.10;52.60;;;;;;5109777;28;20370;-64
2022/03/29 10:27:01;;;;;;;20.27;7.28;;;28.30;51.80;;;;;;5104936;28;20532;-64
2022/03/29 10:30:06;;;;;;;14.15;6.72;;;28.20;52.70;;;;;;5110161;28;20068;-64
2022/03/29 10:33:26;;;;;;;15.82;6.82;;;28.60;49.80;;;;;;5104614;28;20047;-65
2022/03/29 10:36:29;;;;;;;19.58;6.85;;;27.90;51.10;;;;;;5110596;28;20070;-72
2022/03/29 10:39:45;;;;;;;16.20;7.63;;;28.40;50.70;;;;;;5103680;28;20047;-72
2022/03/29 10:42:49;;;;;;;16.27;7.47;;;26.80;51.70;;;;;;5107698;28;20055;-64
2022/03/29 10:45:53;;;;;;;11.65;7.35;;;27.80;51.70;;;;;;5108231;28;20041;-65
2022/03/29 10:49:20;;;;;;;14.35;6.97;;;26.30;51.90;;;;;;5108168;28;20486;-72
2022/03/29 10:52:25;;;;;;;10.82;6.47;;;25.50;52.80;;;;;;5108926;28;20053;-71
2022/03/29 10:55:29;;;;;;;19.63;6.78;;;27.30;49.90;;;;;;5106108;28;20461;-72
2022/03/29 10:58:34;;;;;;;12.48;5.97;;;28.10;49.10;;;;;;5103076;28;20038;-65
2022/03/29 11:01:40;;;;;;;15.15;6.82;;;29.00;48.80;;;;;;5107293;28;21928;-64
2022/03/29 11:05:13;;;;;;;13.95;6.10;;;29.90;47.90;;;;;;5101821;28;20046;-65
2022/03/29 11:08:20;;;;;;;11.90;5.75;;;30.50;47.10;;;;;;5104217;28;20054;-65
2022/03/29 11:11:39;;;;;;;15.10;6.03;;;28.90;47.80;;;;;;5098344;28;20046;-64
2022/03/29 11:14:43;;;;;;;16.30;6.95;;;27.90;48.20;;;;;;5107645;28;20396;-72
2022/03/29 11:17:47;;;;;;;13.48;6.68;;;27.80;48.70;;;;;;5107831;28;20046;-64
2022/03/29 11:21:02;;;;;;;14.77;6.93;;;27.30;49.50;;;;;;5107908;28;20042;-64
2022/03/29 11:24:10;;;;;;;15.90;6.78;;;27.40;49.70;;;;;;5105032;28;20092;-64
2022/03/29 11:27:29;;;;;;;10.95;6.30;;;27.60;49.90;;;;;;5104522;28;20070;-65
2022/03/29 11:30:34;;;;;;;18.60;6.95;;;28.30;49.50;;;;;;5101752;28;20042;-65
2022/03/29 11:33:43;;;;;;;10.82;6.32;;;28.90;49.40;;;;;;5100479;28;20584;-64
2022/03/29 11:36:47;;;;;;;12.98;6.28;;;29.70;48.80;;;;;;5106909;28;20062;-72
2022/03/29 11:39:52;;;;;;;14.85;6.45;;;29.40;47.50;;;;;;5103897;28;20030;-72
2022/03/29 11:42:59;;;;;;;10.73;6.25;;;30.00;48.20;;;;;;5112381;28;20043;-72
2022/03/29 11:46:04;;;;;;;17.95;6.72;;;30.30;48.00;;;;;;5115244;28;20046;-64
2022/03/29 11:49:08;;;;;;;15.90;6.15;;;29.50;48.10;;;;;;5108248;28;20055;-72
2022/03/29 11:52:18;;;;;;;12.50;6.55;;;29.60;49.10;;;;;;5102135;28;20039;-72
2022/03/29 11:55:23;;;;;;;10.30;6.90;;;26.30;49.50;;;;;;5107983;28;20390;-73
2022/03/29 11:58:30;;;;;;;14.27;6.70;;;27.20;50.20;;;;;;5102971;28;20398;-64
2022/03/29 12:01:35;;;;;;;22.58;6.78;;;26.50;51.20;;;;;;5109454;28;20030;-64
2022/03/29 12:04:40;;;;;;;15.90;7.43;;;25.30;51.60;;;;;;5110484;28;20501;-72
2022/03/29 12:07:46;;;;;;;13.20;6.43;;;24.80;52.40;;;;;;5107439;28;20059;-73
2022/03/29 12:10:50;;;;;;;16.48;6.22;;;26.70;52.10;;;;;;5108028;28;20066;-72
2022/03/29 12:14:04;;;;;;;13.27;7.13;;;27.80;50.60;;;;;;5115641;28;20629;-64
2022/03/29 12:17:08;;;;;;;13.73;6.10;;;27.90;49.90;;;;;;5114874;28;20039;-72
2022/03/29 12:20:12;;;;;;;11.48;6.13;;;28.80;49.30;;;;;;5114560;28;20046;-72
2022/03/29 12:23:22;;;;;;;14.40;6.57;;;27.30;49.70;;;;;;5115390;28;20039;-73
2022/03/29 12:26:32;;;;;;;21.52;7.15;;;28.60;49.80;;;;;;5105074;28;20488;-65
2022/03/29 12:29:46;;;;;;;18.50;6.65;;;25.90;49.90;;;;;;5115341;28;20042;-64
2022/03/29 12:32:51;;;;;;;12.10;6.47;;;25.10;50.70;;;;;;5116052;28;20046;-72
2022/03/29 12:36:11;;;;;;;17.90;6.60;;;25.80;51.10;;;;;;5102551;28;20905;-73
2022/03/29 12:39:21;;;;;;;14.95;6.07;;;28.10;50.40;;;;;;5076779;28;20051;-73
2022/03/29 12:42:35;;;;;;;11.73;5.45;;;29.20;48.60;;;;;;5105606;28;20499;-65
2022/03/29 12:45:52;;;;;;;13.20;6.30;;;29.70;48.60;;;;;;5110158;28;20045;-74
2022/03/29 12:48:57;;;;;;;12.95;6.60;;;26.60;49.70;;;;;;5112651;28;20067;-73
2022/03/29 12:52:04;;;;;;;22.15;7.00;;;26.90;50.30;;;;;;5109567;28;20421;-74
2022/03/29 12:55:18;;;;;;;12.50;6.78;;;26.50;50.10;;;;;;5112403;28;20058;-73
2022/03/29 12:58:37;;;;;;;14.85;6.00;;;27.00;51.30;;;;;;5102650;28;20047;-65
2022/03/29 13:01:40;;;;;;;17.60;6.13;;;27.60;50.80;;;;;;5112086;28;20043;-65
2022/03/29 13:04:57;;;;;;;14.45;5.97;;;28.30;49.90;;;;;;5107890;28;20039;-65
2022/03/29 13:08:01;;;;;;;12.75;5.78;;;29.40;49.60;;;;;;5106561;28;20113;-65
2022/03/29 13:11:19;;;;;;;15.20;5.65;;;30.30;48.50;;;;;;5107910;28;20046;-72
2022/03/29 13:14:40;;;;;;;15.45;5.78;;;31.90;47.50;;;;;;5108453;28;20047;-65
2022/03/29 13:17:44;;;;;;;11.20;5.60;;;33.30;47.60;;;;;;5093748;28;20055;-73
2022/03/29 13:20:50;;;;;;;14.70;5.18;;;34.00;46.60;;;;;;5092205;28;20051;-72
2022/03/29 13:24:07;;;;;;;18.98;6.93;;;31.70;46.30;;;;;;5093560;28;20391;-66
2022/03/29 13:27:13;;;;;;;15.15;6.10;;;32.80;47.40;;;;;;5096961;28;20047;-65
2022/03/29 13:30:17;;;;;;;14.25;5.35;;;32.60;46.80;;;;;;5114863;28;20046;-73
2022/03/29 13:33:22;;;;;;;12.25;5.18;;;32.20;46.50;;;;;;5115826;28;20047;-66
2022/03/29 13:36:27;;;;;;;19.15;6.13;;;32.10;47.50;;;;;;5113633;28;20066;-65
2022/03/29 13:39:30;;;;;;;19.45;6.38;;;28.50;50.10;;;;;;5115316;28;20049;-72
2022/03/29 13:42:34;;;;;;;11.93;5.47;;;27.80;49.40;;;;;;5113516;28;20042;-72
2022/03/29 13:45:39;;;;;;;14.20;5.85;;;27.10;49.30;;;;;;5114183;28;20110;-73
2022/03/29 13:48:44;;;;;;;20.90;6.78;;;27.80;50.00;;;;;;5114482;28;20054;-64
2022/03/29 13:51:48;;;;;;;18.40;6.45;;;25.90;51.20;;;;;;5114532;28;20046;-64
2022/03/29 13:54:52;;;;;;;18.60;6.35;;;26.30;51.60;;;;;;5114267;28;20046;-73
2022/03/29 13:57:56;;;;;;;15.27;5.85;;;26.80;51.00;;;;;;5108915;28;20055;-63
2022/03/29 14:01:00;;;;;;;14.40;6.10;;;26.50;50.50;;;;;;5092687;28;20502;-64
2022/03/29 14:04:07;;;;;;;15.52;6.35;;;24.10;53.70;;;;;;5094142;28;20043;-73
2022/03/29 14:07:11;;;;;;;14.02;5.90;;;23.70;53.70;;;;;;5092254;28;20051;-72
2022/03/29 14:10:15;;;;;;;13.60;6.25;;;23.90;54.00;;;;;;5093020;28;20051;-72
2022/03/29 14:13:21;;;;;;;15.80;6.05;;;24.60;53.70;;;;;;5092923;28;20051;-72
2022/03/29 14:16:26;;;;;;;15.48;5.80;;;23.70;54.30;;;;;;5091228;28;20051;-72
2022/03/29 14:19:30;;;;;;;19.05;6.72;;;24.30;54.20;;;;;;5091066;28;20047;-72
2022/03/29 14:22:34;;;;;;;14.05;6.35;;;24.30;53.30;;;;;;5091851;28;20051;-72
2022/03/29 14:25:39;;;;;;;17.88;6.35;;;23.50;55.20;;;;;;5091785;28;20043;-73
2022/03/29 14:28:43;;;;;;;33.70;6.70;;;22.50;55.10;;;;;;5091793;28;20051;-73
2022/03/29 14:31:48;;;;;;;14.25;6.60;;;21.30;58.50;;;;;;5091660;28;20585;-72
2022/03/29 14:34:52;;;;;;;12.38;6.45;;;20.20;60.00;;;;;;5090363;28;20039;-72
2022/03/29 14:37:56;;;;;;;17.23;6.05;;;20.00;60.00;;;;;;5090972;28;20387;-71
2022/03/29 14:41:00;;;;;;;10.63;6.15;;;20.70;60.30;;;;;;5091883;28;20047;-71
2022/03/29 14:44:07;;;;;;;17.42;6.47;;;21.20;58.50;;;;;;5091451;28;20039;-71
2022/03/29 14:47:11;;;;;;;16.55;6.47;;;22.80;56.70;;;;;;5091117;28;20067;-72
2022/03/29 14:50:18;;;;;;;16.95;6.50;;;23.90;56.30;;;;;;5091557;28;20383;-71
2022/03/29 14:53:23;;;;;;;19.77;6.82;;;23.90;54.80;;;;;;5091653;28;20050;-71
2022/03/29 14:56:28;;;;;;;26.20;8.43;;;23.40;55.00;;;;;;5097296;28;20058;-72
2022/03/29 14:59:32;;;;;;;22.25;10.90;;;22.70;57.00;;;;;;5111850;28;20054;-71
2022/03/29 15:02:36;;;;;;;20.67;7.15;;;21.30;58.30;;;;;;5111676;28;20125;-71
2022/03/29 15:05:40;;;;;;;13.68;6.47;;;21.20;59.70;;;;;;5110320;28;20039;-70
2022/03/29 15:08:44;;;;;;;17.27;6.55;;;20.80;59.40;;;;;;5111702;28;20042;-71
2022/03/29 15:11:48;;;;;;;13.60;6.50;;;21.20;59.50;;;;;;5110950;28;20051;-72
2022/03/29 15:14:52;;;;;;;23.85;8.68;;;21.00;60.10;;;;;;5111879;28;20051;-72
2022/03/29 15:17:56;;;;;;;16.75;6.45;;;20.00;61.70;;;;;;5111310;28;20387;-72
2022/03/29 15:21:00;;;;;;;22.15;7.30;;;19.60;62.00;;;;;;5109220;28;20070;-72
2022/03/29 15:24:04;;;;;;;17.05;5.70;;;20.20;61.90;;;;;;5090861;28;20368;-72
2022/03/29 15:27:08;;;;;;;17.33;6.07;;;21.00;61.70;;;;;;5089366;28;20043;-72
2022/03/29 15:30:13;;;;;;;16.02;5.70;;;21.30;60.60;;;;;;5091077;28;20047;-72
2022/03/29 15:33:16;;;;;;;15.93;6.20;;;21.80;60.30;;;;;;5091161;28;20047;-72
2022/03/29 15:36:21;;;;;;;19.08;6.63;;;22.10;60.40;;;;;;5090217;28;20051;-72
2022/03/29 15:39:25;;;;;;;22.23;5.82;;;20.70;62.20;;;;;;5091021;28;20075;-72
2022/03/29 15:42:29;;;;;;;11.93;5.57;;;21.30;61.80;;;;;;5090958;28;20047;-72
2022/03/29 15:45:32;;;;;;;13.45;4.97;;;20.60;62.50;;;;;;5090720;28;20051;-72
2022/03/29 15:48:36;;;;;;;18.67;5.38;;;20.90;63.10;;;;;;5090867;28;20785;-72
2022/03/29 15:51:42;;;;;;;18.35;5.93;;;20.80;63.30;;;;;;5091162;28;20047;-73
2022/03/29 15:54:46;;;;;;;15.35;6.15;;;19.80;64.90;;;;;;5090460;28;20051;-73
2022/03/29 15:57:50;;;;;;;13.90;5.95;;;19.40;65.50;;;;;;5089963;28;20058;-72
2022/03/29 16:00:54;;;;;;;16.25;5.55;;;19.00;65.90;;;;;;5090748;28;20079;-72
2022/03/29 16:03:59;;;;;;;16.02;5.43;;;19.00;64.80;;;;;;5090459;28;20039;-72